sensor_id;sensor_type;location;lat;lon;timestamp;pressure;altitude;pressure_sealevel;temperature;humidity
17060;BME280;8646;49.716;9.266;2022-07-05T00:02:42;100576.44;;;17.62;55.19
17060;BME280;8646;49.716;9.266;2022-07-05T00:05:47;100577.72;;;17.56;54.93
17060;BME280;8646;49.716;9.266;2022-07-05T00:08:50;100577.91;;;17.53;55.03
17060;BME280;8646;49.716;9.266;2022-07-05T00:11:53;100583.59;;;17.50;55.44
17060;BME280;8646;49.716;9.266;2022-07-05T00:14:55;100582.25;;;17.43;55.48
17060;BME280;8646;49.716;9.266;2022-07-05T00:17:58;100579.34;;;17.32;55.72
17060;BME280;8646;49.716;9.266;2022-07-05T00:21:02;100588.44;;;17.32;55.76
17060;BME280;8646;49.716;9.266;2022-07-05T00:24:05;100584.03;;;17.30;56.08
17060;BME280;8646;49.716;9.266;2022-07-05T00:27:08;100578.88;;;17.25;55.89
17060;BME280;8646;49.716;9.266;2022-07-05T00:30:12;100587.84;;;17.27;55.92
17060;BME280;8646;49.716;9.266;2022-07-05T00:33:15;100588.94;;;17.25;56.22
17060;BME280;8646;49.716;9.266;2022-07-05T00:36:19;100589.91;;;17.24;56.41
17060;BME280;8646;49.716;9.266;2022-07-05T00:39:22;100588.16;;;17.23;56.32
17060;BME280;8646;49.716;9.266;2022-07-05T00:42:25;100556.78;;;17.01;56.76
17060;BME280;8646;49.716;9.266;2022-07-05T00:45:28;100587.78;;;17.14;56.83
17060;BME280;8646;49.716;9.266;2022-07-05T00:48:31;100584.50;;;17.09;57.18
17060;BME280;8646;49.716;9.266;2022-07-05T00:51:37;100592.97;;;17.05;57.00
17060;BME280;8646;49.716;9.266;2022-07-05T00:55:00;100590.34;;;17.03;57.41
17060;BME280;8646;49.716;9.266;2022-07-05T00:58:03;100588.78;;;16.99;57.47
17060;BME280;8646;49.716;9.266;2022-07-05T01:01:08;100590.97;;;16.94;57.63
17060;BME280;8646;49.716;9.266;2022-07-05T01:04:12;100590.34;;;16.89;57.71
17060;BME280;8646;49.716;9.266;2022-07-05T01:07:17;100586.97;;;16.86;57.48
17060;BME280;8646;49.716;9.266;2022-07-05T01:10:20;100592.53;;;16.84;57.93
17060;BME280;8646;49.716;9.266;2022-07-05T01:13:24;100593.00;;;16.76;58.29
17060;BME280;8646;49.716;9.266;2022-07-05T01:16:26;100594.00;;;16.75;58.47
17060;BME280;8646;49.716;9.266;2022-07-05T01:19:30;100600.72;;;16.70;58.89
17060;BME280;8646;49.716;9.266;2022-07-05T01:22:49;100595.84;;;16.61;58.44
17060;BME280;8646;49.716;9.266;2022-07-05T01:25:56;100595.03;;;16.59;58.67
17060;BME280;8646;49.716;9.266;2022-07-05T01:28:59;100595.19;;;16.56;58.67
17060;BME280;8646;49.716;9.266;2022-07-05T01:32:02;100602.44;;;16.57;58.68
17060;BME280;8646;49.716;9.266;2022-07-05T01:35:07;100599.91;;;16.54;59.02
17060;BME280;8646;49.716;9.266;2022-07-05T01:38:12;100602.72;;;16.52;58.97
17060;BME280;8646;49.716;9.266;2022-07-05T01:41:14;100608.09;;;16.54;59.23
17060;BME280;8646;49.716;9.266;2022-07-05T01:44:17;100603.88;;;16.48;59.53
17060;BME280;8646;49.716;9.266;2022-07-05T01:47:20;100603.41;;;16.41;59.56
17060;BME280;8646;49.716;9.266;2022-07-05T01:50:23;100588.94;;;16.39;59.91
17060;BME280;8646;49.716;9.266;2022-07-05T01:53:28;100589.91;;;16.38;59.80
17060;BME280;8646;49.716;9.266;2022-07-05T01:56:31;100586.22;;;16.39;59.88
17060;BME280;8646;49.716;9.266;2022-07-05T01:59:36;100598.09;;;16.38;60.20
17060;BME280;8646;49.716;9.266;2022-07-05T02:02:40;100601.13;;;16.34;60.15
17060;BME280;8646;49.716;9.266;2022-07-05T02:05:45;100600.56;;;16.29;60.58
17060;BME280;8646;49.716;9.266;2022-07-05T02:08:49;100600.16;;;16.21;60.34
17060;BME280;8646;49.716;9.266;2022-07-05T02:11:52;100605.09;;;16.14;60.78
17060;BME280;8646;49.716;9.266;2022-07-05T02:14:55;100601.06;;;16.06;61.03
17060;BME280;8646;49.716;9.266;2022-07-05T02:17:58;100602.41;;;15.98;61.37
17060;BME280;8646;49.716;9.266;2022-07-05T02:21:01;100606.56;;;15.90;61.34
17060;BME280;8646;49.716;9.266;2022-07-05T02:24:06;100602.88;;;15.91;61.87
17060;BME280;8646;49.716;9.266;2022-07-05T02:27:09;100602.00;;;15.90;61.86
17060;BME280;8646;49.716;9.266;2022-07-05T02:30:13;100605.19;;;15.83;61.98
17060;BME280;8646;49.716;9.266;2022-07-05T02:33:16;100603.00;;;15.74;62.33
17060;BME280;8646;49.716;9.266;2022-07-05T02:36:19;100585.16;;;15.52;62.33
17060;BME280;8646;49.716;9.266;2022-07-05T02:39:24;100615.63;;;15.60;62.37
17060;BME280;8646;49.716;9.266;2022-07-05T02:42:26;100603.66;;;15.63;62.73
17060;BME280;8646;49.716;9.266;2022-07-05T02:45:29;100614.50;;;15.64;62.58
17060;BME280;8646;49.716;9.266;2022-07-05T02:48:33;100600.84;;;15.64;62.64
17060;BME280;8646;49.716;9.266;2022-07-05T02:51:37;100609.13;;;15.63;62.49
17060;BME280;8646;49.716;9.266;2022-07-05T02:54:41;100611.50;;;15.53;62.86
17060;BME280;8646;49.716;9.266;2022-07-05T02:57:44;100616.13;;;15.51;63.22
17060;BME280;8646;49.716;9.266;2022-07-05T03:00:48;100614.56;;;15.47;63.18
17060;BME280;8646;49.716;9.266;2022-07-05T03:03:51;100619.91;;;15.49;63.22
17060;BME280;8646;49.716;9.266;2022-07-05T03:06:54;100618.25;;;15.46;63.39
17060;BME280;8646;49.716;9.266;2022-07-05T03:09:59;100635.50;;;15.47;63.35
17060;BME280;8646;49.716;9.266;2022-07-05T03:13:02;100628.38;;;15.44;63.55
17060;BME280;8646;49.716;9.266;2022-07-05T03:16:05;100632.84;;;15.45;63.94
17060;BME280;8646;49.716;9.266;2022-07-05T03:19:08;100633.03;;;15.42;64.06
17060;BME280;8646;49.716;9.266;2022-07-05T03:22:11;100642.38;;;15.38;64.24
17060;BME280;8646;49.716;9.266;2022-07-05T03:25:16;100633.53;;;15.33;64.44
17060;BME280;8646;49.716;9.266;2022-07-05T03:28:19;100633.81;;;15.28;64.60
17060;BME280;8646;49.716;9.266;2022-07-05T03:31:21;100644.81;;;15.27;64.60
17060;BME280;8646;49.716;9.266;2022-07-05T03:34:24;100639.56;;;15.24;64.59
17060;BME280;8646;49.716;9.266;2022-07-05T03:37:27;100643.25;;;15.23;64.58
17060;BME280;8646;49.716;9.266;2022-07-05T03:40:32;100648.59;;;15.24;65.10
17060;BME280;8646;49.716;9.266;2022-07-05T03:43:35;100649.56;;;15.23;65.42
17060;BME280;8646;49.716;9.266;2022-07-05T03:46:38;100656.97;;;15.21;65.29
17060;BME280;8646;49.716;9.266;2022-07-05T03:49:41;100653.34;;;15.21;65.36
17060;BME280;8646;49.716;9.266;2022-07-05T03:52:44;100653.28;;;15.22;65.09
17060;BME280;8646;49.716;9.266;2022-07-05T03:55:50;100654.31;;;15.20;64.81
17060;BME280;8646;49.716;9.266;2022-07-05T03:58:54;100649.81;;;15.19;64.96
17060;BME280;8646;49.716;9.266;2022-07-05T04:01:57;100651.59;;;15.20;65.08
17060;BME280;8646;49.716;9.266;2022-07-05T04:04:59;100657.84;;;15.22;64.84
17060;BME280;8646;49.716;9.266;2022-07-05T04:08:03;100655.03;;;15.23;65.17
17060;BME280;8646;49.716;9.266;2022-07-05T04:11:07;100670.31;;;15.26;64.78
17060;BME280;8646;49.716;9.266;2022-07-05T04:14:11;100663.09;;;15.25;64.86
17060;BME280;8646;49.716;9.266;2022-07-05T04:17:14;100663.00;;;15.26;65.10
17060;BME280;8646;49.716;9.266;2022-07-05T04:20:18;100666.63;;;15.27;64.89
17060;BME280;8646;49.716;9.266;2022-07-05T04:23:22;100669.44;;;15.25;64.86
17060;BME280;8646;49.716;9.266;2022-07-05T04:26:27;100674.19;;;15.22;65.40
17060;BME280;8646;49.716;9.266;2022-07-05T04:29:30;100674.19;;;15.22;65.02
17060;BME280;8646;49.716;9.266;2022-07-05T04:32:33;100682.09;;;15.26;65.25
17060;BME280;8646;49.716;9.266;2022-07-05T04:35:37;100679.91;;;15.33;65.28
17060;BME280;8646;49.716;9.266;2022-07-05T04:38:40;100681.44;;;15.39;65.10
17060;BME280;8646;49.716;9.266;2022-07-05T04:41:44;100686.44;;;15.46;64.80
17060;BME280;8646;49.716;9.266;2022-07-05T04:44:47;100692.38;;;15.54;64.64
17060;BME280;8646;49.716;9.266;2022-07-05T04:47:51;100693.78;;;15.61;64.48
17060;BME280;8646;49.716;9.266;2022-07-05T04:50:53;100647.47;;;15.44;64.88
17060;BME280;8646;49.716;9.266;2022-07-05T04:53:56;100689.88;;;15.81;64.91
17060;BME280;8646;49.716;9.266;2022-07-05T04:57:00;100686.06;;;15.99;64.28
17060;BME280;8646;49.716;9.266;2022-07-05T05:00:04;100682.31;;;17.33;61.37
17060;BME280;8646;49.716;9.266;2022-07-05T05:03:07;100679.94;;;18.88;56.68
17060;BME280;8646;49.716;9.266;2022-07-05T05:06:10;100657.88;;;20.11;53.40
17060;BME280;8646;49.716;9.266;2022-07-05T05:09:14;100649.66;;;21.04;50.86
17060;BME280;8646;49.716;9.266;2022-07-05T05:12:19;100647.94;;;21.90;49.05
17060;BME280;8646;49.716;9.266;2022-07-05T05:15:21;100629.38;;;22.56;47.56
17060;BME280;8646;49.716;9.266;2022-07-05T05:18:24;100628.19;;;23.21;46.32
17060;BME280;8646;49.716;9.266;2022-07-05T05:21:28;100624.75;;;23.78;45.15
17060;BME280;8646;49.716;9.266;2022-07-05T05:24:31;100616.97;;;24.22;44.08
17060;BME280;8646;49.716;9.266;2022-07-05T05:27:41;100618.81;;;24.60;43.45
17060;BME280;8646;49.716;9.266;2022-07-05T05:30:49;100623.28;;;24.99;42.42
17060;BME280;8646;49.716;9.266;2022-07-05T05:33:52;100614.03;;;25.18;41.75
17060;BME280;8646;49.716;9.266;2022-07-05T05:36:55;100614.59;;;25.59;40.87
17060;BME280;8646;49.716;9.266;2022-07-05T05:39:58;100609.19;;;26.02;40.20
17060;BME280;8646;49.716;9.266;2022-07-05T05:43:02;100602.25;;;26.34;39.49
17060;BME280;8646;49.716;9.266;2022-07-05T05:46:05;100604.66;;;26.54;38.84
17060;BME280;8646;49.716;9.266;2022-07-05T05:49:08;100603.53;;;26.65;38.40
17060;BME280;8646;49.716;9.266;2022-07-05T05:52:10;100610.91;;;26.74;38.05
17060;BME280;8646;49.716;9.266;2022-07-05T05:55:13;100605.63;;;26.89;37.61
17060;BME280;8646;49.716;9.266;2022-07-05T05:58:18;100606.31;;;27.17;37.25
17060;BME280;8646;49.716;9.266;2022-07-05T06:01:21;100601.06;;;27.40;36.44
17060;BME280;8646;49.716;9.266;2022-07-05T06:04:25;100598.75;;;27.69;36.12
17060;BME280;8646;49.716;9.266;2022-07-05T06:07:27;100599.50;;;27.79;35.60
17060;BME280;8646;49.716;9.266;2022-07-05T06:10:32;100602.50;;;28.02;35.39
17060;BME280;8646;49.716;9.266;2022-07-05T06:13:36;100605.69;;;28.23;34.97
17060;BME280;8646;49.716;9.266;2022-07-05T06:16:39;100605.69;;;28.47;34.74
17060;BME280;8646;49.716;9.266;2022-07-05T06:19:42;100607.44;;;28.65;34.66
17060;BME280;8646;49.716;9.266;2022-07-05T06:22:46;100606.38;;;28.66;34.56
17060;BME280;8646;49.716;9.266;2022-07-05T06:25:49;100604.16;;;28.86;34.29
17060;BME280;8646;49.716;9.266;2022-07-05T06:28:54;100602.22;;;28.94;33.99
17060;BME280;8646;49.716;9.266;2022-07-05T06:31:57;100599.03;;;29.05;33.37
17060;BME280;8646;49.716;9.266;2022-07-05T06:35:01;100610.34;;;29.04;33.23
17060;BME280;8646;49.716;9.266;2022-07-05T06:38:07;100606.50;;;29.13;33.17
17060;BME280;8646;49.716;9.266;2022-07-05T06:41:10;100601.22;;;29.42;32.86
17060;BME280;8646;49.716;9.266;2022-07-05T06:44:14;100612.47;;;29.57;32.80
17060;BME280;8646;49.716;9.266;2022-07-05T06:47:36;100606.03;;;29.56;32.55
17060;BME280;8646;49.716;9.266;2022-07-05T06:50:41;100598.50;;;29.65;32.07
17060;BME280;8646;49.716;9.266;2022-07-05T06:53:44;100606.78;;;29.81;31.88
17060;BME280;8646;49.716;9.266;2022-07-05T06:57:06;100602.94;;;29.82;31.71
17060;BME280;8646;49.716;9.266;2022-07-05T07:00:32;100599.22;;;29.98;31.97
17060;BME280;8646;49.716;9.266;2022-07-05T07:03:54;100604.13;;;30.19;31.60
17060;BME280;8646;49.716;9.266;2022-07-05T07:07:18;100603.50;;;30.31;31.11
17060;BME280;8646;49.716;9.266;2022-07-05T07:10:38;100601.13;;;30.43;31.11
17060;BME280;8646;49.716;9.266;2022-07-05T07:13:41;100605.19;;;30.63;30.85
17060;BME280;8646;49.716;9.266;2022-07-05T07:16:45;100605.78;;;30.73;30.63
17060;BME280;8646;49.716;9.266;2022-07-05T07:19:48;100606.38;;;30.84;30.52
17060;BME280;8646;49.716;9.266;2022-07-05T07:22:51;100601.94;;;30.75;29.91
17060;BME280;8646;49.716;9.266;2022-07-05T07:25:54;100604.97;;;30.88;30.38
17060;BME280;8646;49.716;9.266;2022-07-05T07:28:57;100602.81;;;30.90;30.07
17060;BME280;8646;49.716;9.266;2022-07-05T07:32:01;100603.69;;;30.90;30.12
17060;BME280;8646;49.716;9.266;2022-07-05T07:35:05;100600.44;;;30.87;29.80
17060;BME280;8646;49.716;9.266;2022-07-05T07:38:08;100606.22;;;31.00;29.76
17060;BME280;8646;49.716;9.266;2022-07-05T07:41:11;100602.31;;;31.09;29.20
17060;BME280;8646;49.716;9.266;2022-07-05T07:44:14;100601.13;;;30.89;29.23
17060;BME280;8646;49.716;9.266;2022-07-05T07:47:18;100598.22;;;30.97;28.81
17060;BME280;8646;49.716;9.266;2022-07-05T07:50:22;100601.13;;;31.03;28.74
17060;BME280;8646;49.716;9.266;2022-07-05T07:53:25;100601.16;;;31.18;28.81
17060;BME280;8646;49.716;9.266;2022-07-05T07:56:28;100602.44;;;30.93;29.11
17060;BME280;8646;49.716;9.266;2022-07-05T07:59:31;100590.41;;;30.92;28.95
17060;BME280;8646;49.716;9.266;2022-07-05T08:02:36;100593.63;;;31.04;28.97
17060;BME280;8646;49.716;9.266;2022-07-05T08:05:38;100593.78;;;30.88;29.02
17060;BME280;8646;49.716;9.266;2022-07-05T08:08:43;100603.22;;;30.87;29.12
17060;BME280;8646;49.716;9.266;2022-07-05T08:11:47;100595.28;;;30.76;29.04
17060;BME280;8646;49.716;9.266;2022-07-05T08:14:52;100598.63;;;30.56;29.13
17060;BME280;8646;49.716;9.266;2022-07-05T08:17:56;100595.38;;;30.45;29.24
17060;BME280;8646;49.716;9.266;2022-07-05T08:21:16;100593.59;;;30.06;29.57
17060;BME280;8646;49.716;9.266;2022-07-05T08:24:38;100603.94;;;28.46;30.83
17060;BME280;8646;49.716;9.266;2022-07-05T08:27:42;100613.66;;;27.26;32.58
17060;BME280;8646;49.716;9.266;2022-07-05T08:30:45;100618.53;;;26.54;33.28
17060;BME280;8646;49.716;9.266;2022-07-05T08:33:49;100618.28;;;26.12;34.24
17060;BME280;8646;49.716;9.266;2022-07-05T08:36:52;100620.19;;;25.94;34.43
17060;BME280;8646;49.716;9.266;2022-07-05T08:39:56;100625.38;;;25.79;34.31
17060;BME280;8646;49.716;9.266;2022-07-05T08:43:00;100626.06;;;25.64;34.47
17060;BME280;8646;49.716;9.266;2022-07-05T08:46:05;100597.63;;;25.34;33.65
17060;BME280;8646;49.716;9.266;2022-07-05T08:49:13;100614.09;;;25.36;33.76
17060;BME280;8646;49.716;9.266;2022-07-05T08:52:19;100604.69;;;25.46;33.92
17060;BME280;8646;49.716;9.266;2022-07-05T08:55:23;100602.34;;;25.61;33.62
17060;BME280;8646;49.716;9.266;2022-07-05T08:58:26;100616.72;;;25.65;33.46
17060;BME280;8646;49.716;9.266;2022-07-05T09:01:29;100612.78;;;25.67;33.29
17060;BME280;8646;49.716;9.266;2022-07-05T09:04:42;100595.53;;;25.73;32.73
17060;BME280;8646;49.716;9.266;2022-07-05T09:07:53;100589.34;;;25.79;32.63
17060;BME280;8646;49.716;9.266;2022-07-05T09:10:57;100591.03;;;25.90;32.57
17060;BME280;8646;49.716;9.266;2022-07-05T09:14:02;100585.41;;;26.00;32.18
17060;BME280;8646;49.716;9.266;2022-07-05T09:17:26;100585.34;;;26.09;31.91
17060;BME280;8646;49.716;9.266;2022-07-05T09:20:31;100596.81;;;26.14;31.90
17060;BME280;8646;49.716;9.266;2022-07-05T09:23:34;100586.53;;;26.07;32.15
17060;BME280;8646;49.716;9.266;2022-07-05T09:26:42;100588.50;;;26.14;31.77
17060;BME280;8646;49.716;9.266;2022-07-05T09:29:59;100592.03;;;26.34;31.92
17060;BME280;8646;49.716;9.266;2022-07-05T09:33:06;100593.66;;;26.45;31.16
17060;BME280;8646;49.716;9.266;2022-07-05T09:36:10;100598.44;;;26.35;31.42
17060;BME280;8646;49.716;9.266;2022-07-05T09:39:13;100608.47;;;26.36;31.22
17060;BME280;8646;49.716;9.266;2022-07-05T09:42:19;100597.94;;;26.39;31.49
17060;BME280;8646;49.716;9.266;2022-07-05T09:45:22;100588.81;;;26.47;31.26
17060;BME280;8646;49.716;9.266;2022-07-05T09:48:27;100593.09;;;26.59;30.98
17060;BME280;8646;49.716;9.266;2022-07-05T09:51:49;100595.41;;;26.46;31.17
17060;BME280;8646;49.716;9.266;2022-07-05T09:55:03;100594.50;;;26.63;31.57
17060;BME280;8646;49.716;9.266;2022-07-05T09:58:07;100596.34;;;26.80;31.55
17060;BME280;8646;49.716;9.266;2022-07-05T10:01:25;100588.53;;;27.02;31.75
17060;BME280;8646;49.716;9.266;2022-07-05T10:04:28;100587.38;;;27.12;30.83
17060;BME280;8646;49.716;9.266;2022-07-05T10:07:34;100578.19;;;27.12;30.92
17060;BME280;8646;49.716;9.266;2022-07-05T10:10:38;100573.69;;;27.19;30.87
17060;BME280;8646;49.716;9.266;2022-07-05T10:13:41;100573.75;;;27.35;30.97
17060;BME280;8646;49.716;9.266;2022-07-05T10:16:50;100566.88;;;27.47;30.79
17060;BME280;8646;49.716;9.266;2022-07-05T10:19:56;100575.53;;;27.44;30.56
17060;BME280;8646;49.716;9.266;2022-07-05T10:23:04;100582.84;;;27.45;30.76
17060;BME280;8646;49.716;9.266;2022-07-05T10:26:07;100587.38;;;27.46;30.47
17060;BME280;8646;49.716;9.266;2022-07-05T10:29:11;100594.66;;;27.47;30.54
17060;BME280;8646;49.716;9.266;2022-07-05T10:32:15;100592.31;;;27.60;30.38
17060;BME280;8646;49.716;9.266;2022-07-05T10:35:19;100582.47;;;27.82;29.75
17060;BME280;8646;49.716;9.266;2022-07-05T10:38:26;100579.53;;;28.00;29.97
17060;BME280;8646;49.716;9.266;2022-07-05T10:41:30;100586.16;;;28.07;29.12
17060;BME280;8646;49.716;9.266;2022-07-05T10:44:34;100588.66;;;27.60;30.10
17060;BME280;8646;49.716;9.266;2022-07-05T10:47:37;100584.13;;;27.59;30.09
17060;BME280;8646;49.716;9.266;2022-07-05T10:50:48;100560.28;;;27.48;29.16
17060;BME280;8646;49.716;9.266;2022-07-05T10:54:02;100578.72;;;27.57;29.45
17060;BME280;8646;49.716;9.266;2022-07-05T10:57:21;100570.63;;;27.72;29.27
17060;BME280;8646;49.716;9.266;2022-07-05T11:00:24;100575.69;;;27.85;28.80
17060;BME280;8646;49.716;9.266;2022-07-05T11:03:34;100565.78;;;27.98;28.89
17060;BME280;8646;49.716;9.266;2022-07-05T11:06:41;100558.22;;;28.17;28.69
17060;BME280;8646;49.716;9.266;2022-07-05T11:10:00;100567.09;;;28.28;28.19
17060;BME280;8646;49.716;9.266;2022-07-05T11:13:35;100569.50;;;28.39;28.28
17060;BME280;8646;49.716;9.266;2022-07-05T11:16:38;100568.13;;;28.43;28.04
17060;BME280;8646;49.716;9.266;2022-07-05T11:20:13;100561.50;;;28.53;28.33
17060;BME280;8646;49.716;9.266;2022-07-05T11:23:26;100560.81;;;28.42;27.97
17060;BME280;8646;49.716;9.266;2022-07-05T11:26:30;100559.41;;;28.22;27.92
17060;BME280;8646;49.716;9.266;2022-07-05T11:29:40;100560.81;;;28.26;28.06
17060;BME280;8646;49.716;9.266;2022-07-05T11:32:43;100549.69;;;28.34;28.07
17060;BME280;8646;49.716;9.266;2022-07-05T11:35:46;100559.06;;;28.41;27.59
17060;BME280;8646;49.716;9.266;2022-07-05T11:39:10;100531.94;;;28.11;27.44
17060;BME280;8646;49.716;9.266;2022-07-05T11:42:21;100541.47;;;28.00;27.53
17060;BME280;8646;49.716;9.266;2022-07-05T11:45:24;100548.94;;;28.08;27.67
17060;BME280;8646;49.716;9.266;2022-07-05T11:48:28;100549.88;;;28.25;27.50
17060;BME280;8646;49.716;9.266;2022-07-05T11:51:32;100555.59;;;28.47;27.36
17060;BME280;8646;49.716;9.266;2022-07-05T11:54:34;100548.63;;;28.60;27.34
17060;BME280;8646;49.716;9.266;2022-07-05T11:57:53;100542.03;;;28.53;27.28
17060;BME280;8646;49.716;9.266;2022-07-05T12:00:59;100537.13;;;28.55;27.50
17060;BME280;8646;49.716;9.266;2022-07-05T12:04:03;100534.84;;;28.74;26.91
17060;BME280;8646;49.716;9.266;2022-07-05T12:07:06;100527.03;;;28.86;26.55
17060;BME280;8646;49.716;9.266;2022-07-05T12:10:09;100514.78;;;28.95;26.22
17060;BME280;8646;49.716;9.266;2022-07-05T12:13:50;100518.44;;;28.96;26.48
17060;BME280;8646;49.716;9.266;2022-07-05T12:17:11;100517.56;;;28.95;26.72
17060;BME280;8646;49.716;9.266;2022-07-05T12:20:25;100518.25;;;29.05;26.58
17060;BME280;8646;49.716;9.266;2022-07-05T12:23:28;100524.16;;;29.10;26.37
17060;BME280;8646;49.716;9.266;2022-07-05T12:26:31;100525.00;;;29.11;26.69
17060;BME280;8646;49.716;9.266;2022-07-05T12:29:35;100528.63;;;29.19;26.41
17060;BME280;8646;49.716;9.266;2022-07-05T12:32:53;100502.28;;;29.30;26.00
17060;BME280;8646;49.716;9.266;2022-07-05T12:35:59;100486.59;;;29.37;25.76
17060;BME280;8646;49.716;9.266;2022-07-05T12:39:05;100498.75;;;29.44;24.91
17060;BME280;8646;49.716;9.266;2022-07-05T12:42:29;100501.19;;;29.47;24.96
17060;BME280;8646;49.716;9.266;2022-07-05T12:45:36;100506.81;;;29.39;24.81
17060;BME280;8646;49.716;9.266;2022-07-05T12:48:40;100487.13;;;29.41;24.68
17060;BME280;8646;49.716;9.266;2022-07-05T12:51:44;100481.91;;;29.38;24.51
17060;BME280;8646;49.716;9.266;2022-07-05T12:55:12;100486.59;;;29.37;24.90
17060;BME280;8646;49.716;9.266;2022-07-05T12:58:45;100491.72;;;29.56;24.68
17060;BME280;8646;49.716;9.266;2022-07-05T13:01:49;100482.44;;;29.64;24.28
17060;BME280;8646;49.716;9.266;2022-07-05T13:04:52;100488.50;;;29.68;24.16
17060;BME280;8646;49.716;9.266;2022-07-05T13:07:55;100492.06;;;29.53;24.15
17060;BME280;8646;49.716;9.266;2022-07-05T13:10:59;100488.41;;;29.53;24.51
17060;BME280;8646;49.716;9.266;2022-07-05T13:14:02;100487.94;;;29.49;24.15
17060;BME280;8646;49.716;9.266;2022-07-05T13:17:05;100493.13;;;29.52;24.10
17060;BME280;8646;49.716;9.266;2022-07-05T13:20:10;100492.72;;;29.64;23.74
17060;BME280;8646;49.716;9.266;2022-07-05T13:23:15;100491.34;;;29.59;23.67
17060;BME280;8646;49.716;9.266;2022-07-05T13:26:19;100491.44;;;29.43;23.95
17060;BME280;8646;49.716;9.266;2022-07-05T13:29:23;100463.94;;;29.40;24.13
17060;BME280;8646;49.716;9.266;2022-07-05T13:32:26;100488.50;;;29.68;23.88
17060;BME280;8646;49.716;9.266;2022-07-05T13:35:31;100480.56;;;29.56;23.60
17060;BME280;8646;49.716;9.266;2022-07-05T13:38:35;100484.28;;;29.49;24.19
17060;BME280;8646;49.716;9.266;2022-07-05T13:41:39;100484.59;;;29.54;24.17
17060;BME280;8646;49.716;9.266;2022-07-05T13:44:41;100490.59;;;29.35;24.34
17060;BME280;8646;49.716;9.266;2022-07-05T13:47:47;100487.91;;;29.18;24.31
17060;BME280;8646;49.716;9.266;2022-07-05T13:50:50;100489.13;;;29.16;24.88
17060;BME280;8646;49.716;9.266;2022-07-05T13:53:53;100498.44;;;29.39;25.11
17060;BME280;8646;49.716;9.266;2022-07-05T13:56:57;100492.25;;;29.52;24.08
17060;BME280;8646;49.716;9.266;2022-07-05T14:00:01;100494.13;;;29.20;24.28
17060;BME280;8646;49.716;9.266;2022-07-05T14:03:04;100486.09;;;29.34;24.62
17060;BME280;8646;49.716;9.266;2022-07-05T14:06:07;100461.25;;;29.16;23.87
17060;BME280;8646;49.716;9.266;2022-07-05T14:09:10;100479.78;;;29.01;24.37
17060;BME280;8646;49.716;9.266;2022-07-05T14:12:14;100486.72;;;29.05;23.72
17060;BME280;8646;49.716;9.266;2022-07-05T14:15:17;100480.72;;;28.85;23.86
17060;BME280;8646;49.716;9.266;2022-07-05T14:18:21;100491.66;;;28.87;24.03
17060;BME280;8646;49.716;9.266;2022-07-05T14:21:26;100476.19;;;28.92;24.19
17060;BME280;8646;49.716;9.266;2022-07-05T14:24:39;100463.28;;;28.91;23.88
17060;BME280;8646;49.716;9.266;2022-07-05T14:27:43;100486.25;;;29.01;24.42
17060;BME280;8646;49.716;9.266;2022-07-05T14:30:46;100481.00;;;28.98;24.17
17060;BME280;8646;49.716;9.266;2022-07-05T14:33:49;100487.91;;;29.18;23.96
17060;BME280;8646;49.716;9.266;2022-07-05T14:36:52;100480.22;;;29.20;23.81
17060;BME280;8646;49.716;9.266;2022-07-05T14:39:55;100475.63;;;29.28;23.83
17060;BME280;8646;49.716;9.266;2022-07-05T14:42:59;100473.19;;;29.33;23.62
17060;BME280;8646;49.716;9.266;2022-07-05T14:46:02;100473.66;;;29.44;23.82
17060;BME280;8646;49.716;9.266;2022-07-05T14:49:06;100479.34;;;29.59;23.88
17060;BME280;8646;49.716;9.266;2022-07-05T14:52:09;100471.25;;;29.41;24.26
17060;BME280;8646;49.716;9.266;2022-07-05T14:55:12;100461.09;;;29.48;23.94
17060;BME280;8646;49.716;9.266;2022-07-05T14:58:16;100464.25;;;29.68;23.73
17060;BME280;8646;49.716;9.266;2022-07-05T15:01:19;100452.28;;;29.59;23.37
17060;BME280;8646;49.716;9.266;2022-07-05T15:04:22;100455.53;;;29.48;24.16
17060;BME280;8646;49.716;9.266;2022-07-05T15:07:25;100461.97;;;29.49;24.46
17060;BME280;8646;49.716;9.266;2022-07-05T15:10:30;100461.34;;;29.39;24.17
17060;BME280;8646;49.716;9.266;2022-07-05T15:13:34;100457.44;;;29.48;24.68
17060;BME280;8646;49.716;9.266;2022-07-05T15:16:37;100445.63;;;29.69;24.12
17060;BME280;8646;49.716;9.266;2022-07-05T15:19:40;100447.22;;;29.86;23.29
17060;BME280;8646;49.716;9.266;2022-07-05T15:22:42;100448.19;;;29.93;23.29
17060;BME280;8646;49.716;9.266;2022-07-05T15:25:46;100437.31;;;30.06;22.76
17060;BME280;8646;49.716;9.266;2022-07-05T15:28:51;100445.63;;;29.91;23.22
17060;BME280;8646;49.716;9.266;2022-07-05T15:31:54;100456.91;;;29.75;23.58
17060;BME280;8646;49.716;9.266;2022-07-05T15:34:57;100448.22;;;29.70;23.24
17060;BME280;8646;49.716;9.266;2022-07-05T15:38:00;100454.03;;;29.38;23.87
17060;BME280;8646;49.716;9.266;2022-07-05T15:41:03;100449.22;;;29.23;23.90
17060;BME280;8646;49.716;9.266;2022-07-05T15:44:08;100439.06;;;29.00;24.10
17060;BME280;8646;49.716;9.266;2022-07-05T15:47:11;100437.44;;;29.05;24.30
17060;BME280;8646;49.716;9.266;2022-07-05T15:50:14;100430.78;;;29.14;23.93
17060;BME280;8646;49.716;9.266;2022-07-05T15:53:18;100419.50;;;29.08;23.85
17060;BME280;8646;49.716;9.266;2022-07-05T15:56:22;100424.56;;;29.04;24.11
17060;BME280;8646;49.716;9.266;2022-07-05T15:59:26;100432.88;;;28.81;24.56
17060;BME280;8646;49.716;9.266;2022-07-05T16:02:29;100435.34;;;28.68;24.30
17060;BME280;8646;49.716;9.266;2022-07-05T16:05:32;100445.81;;;28.50;24.54
17060;BME280;8646;49.716;9.266;2022-07-05T16:08:35;100437.34;;;28.35;25.13
17060;BME280;8646;49.716;9.266;2022-07-05T16:11:38;100444.09;;;28.49;24.66
17060;BME280;8646;49.716;9.266;2022-07-05T16:14:42;100436.97;;;28.38;24.86
17060;BME280;8646;49.716;9.266;2022-07-05T16:17:45;100436.28;;;28.36;25.08
17060;BME280;8646;49.716;9.266;2022-07-05T16:20:48;100433.34;;;28.22;25.17
17060;BME280;8646;49.716;9.266;2022-07-05T16:24:06;100432.28;;;28.06;24.92